Time;durP1;ratioP1;P1;durP2;ratioP2;P2;SDS_P1;SDS_P2;PMS_P1;PMS_P2;Temp;Humidity;BMP_temperature;BMP_pressure;BME280_temperature;BME280_humidity;BME280_pressure;Samples;Min_cycle;Max_cycle;Signal;HPM_P1;HPM_P2
2023/01/01 00:00:23;;;;;;;80.55;48.22;;;20.90;64.80;;;;;;5072305;28;20110;-78
2023/01/01 00:02:49;;;;;;;75.70;45.38;;;21.00;64.70;;;;;;5072028;28;20115;-78
2023/01/01 00:05:15;;;;;;;77.50;46.13;;;20.90;64.60;;;;;;5054060;28;20429;-79
2023/01/01 00:07:41;;;;;;;75.15;44.42;;;20.80;64.40;;;;;;5071924;28;20086;-79
2023/01/01 00:10:27;;;;;;;70.15;41.17;;;20.80;64.40;;;;;;5071817;28;20049;-77
2023/01/01 00:12:54;;;;;;;74.18;43.15;;;20.80;64.40;;;;;;5071639;28;20052;-75
2023/01/01 00:15:20;;;;;;;66.47;40.20;;;20.80;64.20;;;;;;5071760;28;20739;-76
2023/01/01 00:17:46;;;;;;;47.75;31.95;;;20.80;64.30;;;;;;5053817;28;20037;-75
2023/01/01 00:20:13;;;;;;;55.97;35.97;;;20.80;64.20;;;;;;5071430;28;20112;-75
2023/01/01 00:22:39;;;;;;;70.93;42.75;;;20.90;64.20;;;;;;5071334;28;20043;-75
2023/01/01 00:25:06;;;;;;;61.30;36.50;;;20.80;64.00;;;;;;5071245;28;20088;-75
2023/01/01 00:27:32;;;;;;;51.35;31.80;;;20.90;64.00;;;;;;5071386;28;20059;-72
2023/01/01 00:29:58;;;;;;;40.25;26.60;;;20.80;64.00;;;;;;5069453;28;20047;-75
2023/01/01 00:32:24;;;;;;;34.22;23.33;;;20.80;63.80;;;;;;5070676;28;20036;-74
2023/01/01 00:34:50;;;;;;;48.20;28.40;;;20.80;63.80;;;;;;5071105;28;20484;-75
2023/01/01 00:37:17;;;;;;;49.00;28.25;;;20.70;63.50;;;;;;5071424;28;20481;-74
2023/01/01 00:39:43;;;;;;;57.22;37.40;;;20.70;63.60;;;;;;5069680;28;20040;-75
2023/01/01 00:42:09;;;;;;;66.03;39.38;;;20.70;63.60;;;;;;5071193;28;20044;-75
2023/01/01 00:44:35;;;;;;;70.93;44.80;;;20.70;63.50;;;;;;5070664;28;20048;-74
2023/01/01 00:47:01;;;;;;;78.35;47.22;;;20.70;63.50;;;;;;5070879;28;20028;-74
2023/01/01 00:49:27;;;;;;;78.75;46.28;;;20.70;63.50;;;;;;5070844;28;20047;-74
2023/01/01 00:51:53;;;;;;;72.50;44.92;;;20.80;63.50;;;;;;5052780;28;20033;-75
2023/01/01 00:54:19;;;;;;;79.25;47.17;;;20.70;63.40;;;;;;5070714;28;20089;-75
2023/01/01 00:56:45;;;;;;;74.68;43.17;;;20.60;63.30;;;;;;5070909;28;20025;-73
2023/01/01 00:59:11;;;;;;;73.75;43.80;;;20.70;63.40;;;;;;5053655;28;20109;-73
2023/01/01 01:01:39;;;;;;;72.97;44.28;;;20.70;63.30;;;;;;5053501;28;20040;-74
2023/01/01 01:04:05;;;;;;;75.60;44.67;;;20.60;63.30;;;;;;5079056;28;20077;-74
2023/01/01 01:06:31;;;;;;;72.75;45.63;;;20.70;63.30;;;;;;5073556;28;20043;-73
2023/01/01 01:08:58;;;;;;;63.03;41.53;;;20.60;63.00;;;;;;5091492;28;20082;-73
2023/01/01 01:11:24;;;;;;;66.53;41.67;;;20.60;63.00;;;;;;5091526;28;20040;-74
2023/01/01 01:13:54;;;;;;;72.45;42.17;;;20.50;63.10;;;;;;5091261;28;20039;-77
2023/01/01 01:16:28;;;;;;;70.32;40.53;;;20.50;63.00;;;;;;5091601;28;20123;-72
2023/01/01 01:18:59;;;;;;;61.47;37.75;;;20.60;63.00;;;;;;5055576;28;20097;-73
2023/01/01 01:21:29;;;;;;;64.97;38.38;;;20.30;63.00;;;;;;5091715;28;20379;-74
2023/01/01 01:23:58;;;;;;;61.75;36.55;;;20.70;63.00;;;;;;5091538;28;20024;-73
2023/01/01 01:26:30;;;;;;;52.00;33.05;;;20.70;62.90;;;;;;5073295;28;20489;-73
2023/01/01 01:28:57;;;;;;;55.28;34.75;;;20.60;62.70;;;;;;5073043;28;20111;-73
2023/01/01 01:31:26;;;;;;;50.22;29.73;;;20.60;62.60;;;;;;5091330;28;20036;-75
2023/01/01 01:33:52;;;;;;;51.03;32.00;;;20.50;62.70;;;;;;5090922;28;20087;-73
2023/01/01 01:36:18;;;;;;;54.20;33.95;;;20.40;62.50;;;;;;5090860;28;20474;-74
2023/01/01 01:38:45;;;;;;;53.40;32.55;;;20.50;62.50;;;;;;5090513;28;20123;-73
2023/01/01 01:41:16;;;;;;;51.38;31.52;;;20.60;62.50;;;;;;5090338;28;20047;-73
2023/01/01 01:43:42;;;;;;;50.00;29.73;;;20.50;62.50;;;;;;5094435;28;20028;-75
2023/01/01 01:46:26;;;;;;;50.35;30.83;;;20.50;62.40;;;;;;5095215;28;20604;-75
2023/01/01 01:48:54;;;;;;;53.15;31.02;;;20.50;62.50;;;;;;5094919;28;20032;-74
2023/01/01 01:51:29;;;;;;;53.08;32.22;;;20.60;62.60;;;;;;5094912;28;20043;-75
2023/01/01 01:53:59;;;;;;;47.55;29.35;;;20.50;62.50;;;;;;5094652;28;20551;-74
2023/01/01 01:56:49;;;;;;;50.05;31.45;;;20.50;62.50;;;;;;5094856;28;20031;-76
2023/01/01 01:59:16;;;;;;;51.63;29.80;;;20.50;62.30;;;;;;5056086;28;20048;-73
2023/01/01 02:01:42;;;;;;;51.55;30.17;;;20.60;62.20;;;;;;5094684;28;20519;-75
2023/01/01 02:04:10;;;;;;;40.63;27.75;;;20.20;62.20;;;;;;5094599;28;20126;-74
2023/01/01 02:06:38;;;;;;;52.55;30.60;;;20.50;62.30;;;;;;5076459;28;20060;-76
2023/01/01 02:09:06;;;;;;;48.20;31.60;;;20.50;62.30;;;;;;5094606;28;20044;-74
2023/01/01 02:11:32;;;;;;;47.30;31.92;;;20.40;62.10;;;;;;5094921;28;20067;-73
2023/01/01 02:13:59;;;;;;;47.65;31.35;;;20.50;62.20;;;;;;5076297;28;20040;-75
2023/01/01 02:16:40;;;;;;;55.17;33.22;;;20.40;62.10;;;;;;5094498;28;20054;-76
2023/01/01 02:19:12;;;;;;;47.42;30.42;;;20.40;62.20;;;;;;5094569;28;20484;-75
2023/01/01 02:21:58;;;;;;;50.17;29.67;;;20.40;62.20;;;;;;5094325;28;20032;-75
2023/01/01 02:24:35;;;;;;;49.55;31.08;;;20.40;62.10;;;;;;5094081;28;20043;-73
2023/01/01 02:27:14;;;;;;;44.97;28.48;;;20.60;62.10;;;;;;5094513;28;20047;-74
2023/01/01 02:30:07;;;;;;;49.50;28.73;;;20.40;62.00;;;;;;5094107;28;20472;-73
2023/01/01 02:32:43;;;;;;;41.85;25.63;;;20.40;61.90;;;;;;4975416;28;20621;-72
2023/01/01 02:35:37;;;;;;;50.88;29.92;;;20.40;61.70;;;;;;4956542;28;20050;-73
2023/01/01 02:38:15;;;;;;;39.67;28.08;;;20.40;61.60;;;;;;4972025;28;20039;-74
2023/01/01 02:40:51;;;;;;;44.63;28.58;;;20.30;61.70;;;;;;4972481;28;20202;-73
2023/01/01 02:43:17;;;;;;;52.00;29.20;;;20.40;61.70;;;;;;4972094;28;20120;-74
2023/01/01 02:45:43;;;;;;;44.85;27.58;;;20.20;61.50;;;;;;4956086;28;20198;-75
2023/01/01 02:48:47;;;;;;;39.90;26.90;;;20.30;61.60;;;;;;4972238;28;20187;-76
2023/01/01 02:51:13;;;;;;;44.30;25.48;;;20.30;61.70;;;;;;4972256;28;20038;-74
2023/01/01 02:54:15;;;;;;;42.17;26.25;;;20.50;61.70;;;;;;4971120;28;20046;-74
2023/01/01 02:56:41;;;;;;;37.65;24.95;;;20.40;61.50;;;;;;4972010;28;20074;-75
2023/01/01 03:02:26;;;;;;;37.42;23.75;;;20.40;61.30;;;;;;4951898;28;20125;-75
2023/01/01 03:05:08;;;;;;;37.40;25.52;;;20.30;61.20;;;;;;4951548;28;20043;-75
2023/01/01 03:07:49;;;;;;;47.63;28.02;;;20.40;61.30;;;;;;4914178;29;20103;-76
2023/01/01 03:10:44;;;;;;;44.22;26.05;;;20.30;61.30;;;;;;5028062;28;20040;-74
2023/01/01 03:13:19;;;;;;;42.55;26.25;;;20.30;61.20;;;;;;5050686;28;20588;-75
2023/01/01 03:15:56;;;;;;;48.65;28.60;;;20.30;61.30;;;;;;5050497;28;20087;-74
2023/01/01 03:18:37;;;;;;;47.85;28.70;;;20.20;61.10;;;;;;5050414;28;20083;-74
2023/01/01 03:21:06;;;;;;;41.15;28.08;;;20.30;61.20;;;;;;5034020;28;20043;-74
2023/01/01 03:23:48;;;;;;;45.75;28.52;;;20.30;61.30;;;;;;5050419;28;20051;-73
2023/01/01 03:26:18;;;;;;;46.72;28.02;;;20.30;61.20;;;;;;5050706;28;20040;-73
2023/01/01 03:28:54;;;;;;;46.88;28.25;;;20.40;61.10;;;;;;5033942;28;20052;-73
2023/01/01 03:31:24;;;;;;;44.15;29.73;;;20.40;61.00;;;;;;5050617;28;20060;-74
2023/01/01 03:34:02;;;;;;;46.15;28.35;;;20.40;60.90;;;;;;5050255;28;20049;-74
2023/01/01 03:36:36;;;;;;;50.40;30.75;;;20.40;60.80;;;;;;5050198;28;20093;-76
2023/01/01 03:39:12;;;;;;;41.90;26.95;;;20.40;60.80;;;;;;5065525;28;20499;-74
2023/01/01 03:41:51;;;;;;;44.47;25.27;;;20.40;60.70;;;;;;5053424;28;20052;-75
2023/01/01 03:44:37;;;;;;;41.10;26.10;;;20.30;60.80;;;;;;5072277;28;20032;-76
2023/01/01 03:47:04;;;;;;;37.47;25.50;;;20.30;61.00;;;;;;5072269;28;20119;-74
2023/01/01 03:49:31;;;;;;;42.80;27.48;;;20.20;60.70;;;;;;5072375;28;20210;-75
2023/01/01 03:52:15;;;;;;;39.42;25.42;;;20.30;60.80;;;;;;5072272;28;20115;-75
2023/01/01 03:54:56;;;;;;;37.15;23.98;;;20.30;60.80;;;;;;5071912;28;20379;-74
2023/01/01 03:57:51;;;;;;;42.03;26.70;;;20.30;60.70;;;;;;5071504;28;20123;-76
2023/01/01 04:00:20;;;;;;;46.92;26.30;;;20.40;60.70;;;;;;5071961;28;20067;-77
2023/01/01 04:03:18;;;;;;;40.90;25.70;;;20.40;60.50;;;;;;5072239;28;20077;-75
2023/01/01 04:05:45;;;;;;;40.85;25.30;;;20.50;60.40;;;;;;4990464;28;20046;-74
2023/01/01 04:08:13;;;;;;;38.88;25.10;;;20.50;60.40;;;;;;4990668;28;20042;-73
2023/01/01 04:10:42;;;;;;;42.03;24.77;;;20.40;60.30;;;;;;4990576;28;20058;-74
2023/01/01 04:13:08;;;;;;;36.50;23.20;;;20.30;60.40;;;;;;4990661;28;20102;-74
2023/01/01 04:15:35;;;;;;;34.35;24.23;;;20.40;60.60;;;;;;4990632;28;20495;-74
2023/01/01 04:18:01;;;;;;;37.83;23.45;;;20.40;60.50;;;;;;4957730;28;20597;-74
2023/01/01 04:20:27;;;;;;;36.60;23.88;;;20.30;60.60;;;;;;4990492;28;20042;-73
2023/01/01 04:22:57;;;;;;;35.00;22.45;;;20.40;60.60;;;;;;4990478;28;20042;-73
2023/01/01 04:25:24;;;;;;;36.42;24.40;;;20.20;60.40;;;;;;4990289;28;20475;-73
2023/01/01 04:27:50;;;;;;;33.90;22.38;;;20.20;60.30;;;;;;4990049;28;20051;-73
2023/01/01 04:30:16;;;;;;;36.42;24.27;;;20.20;60.40;;;;;;4990164;28;20034;-72
2023/01/01 04:32:42;;;;;;;35.42;23.73;;;20.20;60.30;;;;;;4990088;28;20491;-73
2023/01/01 04:35:13;;;;;;;34.92;23.08;;;20.40;60.30;;;;;;4989923;28;20211;-73
2023/01/01 04:37:41;;;;;;;36.10;22.92;;;20.40;60.10;;;;;;4973984;28;20037;-74
2023/01/01 04:40:08;;;;;;;37.05;21.85;;;20.30;60.00;;;;;;4992139;28;20033;-74
2023/01/01 04:42:34;;;;;;;35.90;22.77;;;20.40;60.10;;;;;;5052716;28;20068;-73
2023/01/01 04:45:00;;;;;;;40.33;25.05;;;20.30;60.10;;;;;;5052661;28;20489;-72
2023/01/01 04:47:26;;;;;;;36.33;24.20;;;20.30;60.20;;;;;;5071399;28;20036;-73
2023/01/01 04:49:53;;;;;;;36.15;23.33;;;20.20;60.20;;;;;;5071649;28;20468;-73
2023/01/01 04:52:19;;;;;;;37.00;22.80;;;20.20;60.30;;;;;;5071411;28;20223;-73
2023/01/01 04:54:45;;;;;;;36.63;23.42;;;20.20;60.20;;;;;;5070460;28;20024;-73
2023/01/01 04:57:12;;;;;;;34.47;22.88;;;20.20;60.20;;;;;;5071455;28;20040;-73
2023/01/01 04:59:38;;;;;;;31.92;22.50;;;20.20;60.00;;;;;;5071263;28;20376;-73
2023/01/01 05:02:05;;;;;;;37.60;23.27;;;20.20;60.10;;;;;;5086489;28;20039;-72
2023/01/01 05:04:32;;;;;;;34.10;20.42;;;20.30;60.10;;;;;;5112108;28;20077;-72
2023/01/01 05:06:58;;;;;;;36.20;21.95;;;20.30;60.30;;;;;;5110685;28;20036;-75
2023/01/01 05:09:24;;;;;;;28.88;21.58;;;20.30;60.00;;;;;;5103848;28;20055;-74
2023/01/01 05:11:52;;;;;;;34.35;22.00;;;20.40;60.00;;;;;;5074042;28;20134;-79
2023/01/01 05:14:18;;;;;;;36.97;23.15;;;20.50;59.90;;;;;;5091770;28;20445;-77
2023/01/01 05:16:44;;;;;;;35.45;22.95;;;20.50;59.80;;;;;;5091154;28;20028;-76
2023/01/01 05:19:10;;;;;;;40.58;23.77;;;20.40;59.90;;;;;;5091174;28;20028;-74
2023/01/01 05:21:44;;;;;;;30.33;20.80;;;20.50;59.70;;;;;;5091832;28;20036;-75
2023/01/01 05:24:10;;;;;;;37.00;22.65;;;20.50;59.70;;;;;;5091466;28;20032;-75
2023/01/01 05:26:42;;;;;;;32.45;21.52;;;20.60;59.30;;;;;;5091260;28;20040;-75
2023/01/01 05:29:09;;;;;;;32.50;20.83;;;20.70;62.70;;;;;;5091344;28;20061;-71
2023/01/01 05:31:36;;;;;;;30.60;21.70;;;21.00;65.40;;;;;;5091622;28;20036;-74
2023/01/01 05:34:03;;;;;;;35.80;22.25;;;21.50;65.80;;;;;;5091351;28;20166;-74
2023/01/01 05:36:37;;;;;;;32.08;21.13;;;22.10;67.90;;;;;;5091032;28;20114;-72
2023/01/01 05:39:05;;;;;;;30.40;20.50;;;22.40;62.80;;;;;;5092551;28;20070;-70
2023/01/01 05:41:32;;;;;;;31.98;21.10;;;22.50;65.60;;;;;;5091994;28;20043;-71
2023/01/01 05:44:01;;;;;;;28.40;20.13;;;22.50;61.40;;;;;;5074199;28;20115;-71
2023/01/01 05:46:27;;;;;;;29.75;19.67;;;22.40;57.80;;;;;;5091917;28;20098;-72
2023/01/01 05:48:53;;;;;;;30.13;18.13;;;22.40;57.10;;;;;;5092075;28;20032;-70
2023/01/01 05:51:22;;;;;;;31.42;19.40;;;22.40;55.90;;;;;;5092110;28;20042;-73
2023/01/01 05:53:50;;;;;;;26.67;17.63;;;22.40;54.80;;;;;;5073844;28;20028;-71
2023/01/01 05:56:17;;;;;;;31.60;19.20;;;22.30;53.90;;;;;;5091719;28;20036;-70
2023/01/01 05:58:44;;;;;;;26.83;18.95;;;22.30;53.30;;;;;;5091814;28;20039;-70
2023/01/01 06:01:14;;;;;;;32.63;20.95;;;22.30;52.50;;;;;;5092062;28;20032;-72
2023/01/01 06:03:41;;;;;;;29.98;19.00;;;22.30;51.70;;;;;;5090514;28;20448;-73
2023/01/01 06:06:13;;;;;;;21.05;13.52;;;22.20;50.90;;;;;;5090840;28;20036;-73
2023/01/01 06:08:40;;;;;;;28.70;21.58;;;22.20;49.60;;;;;;5090004;28;20397;-71
2023/01/01 06:11:09;;;;;;;23.63;18.95;;;22.20;47.40;;;;;;5090435;28;20406;-76
2023/01/01 06:13:35;;;;;;;23.73;17.52;;;22.00;48.30;;;;;;5090311;28;20500;-72
2023/01/01 06:16:02;;;;;;;22.33;15.00;;;22.00;49.40;;;;;;5090697;28;20111;-74
2023/01/01 06:18:30;;;;;;;27.98;20.33;;;21.90;49.80;;;;;;5090247;28;20504;-72
2023/01/01 06:21:10;;;;;;;28.88;21.10;;;21.90;47.90;;;;;;5090234;28;20051;-73
2023/01/01 06:23:37;;;;;;;33.28;22.58;;;21.80;48.00;;;;;;5089117;28;20028;-75
2023/01/01 06:26:13;;;;;;;22.38;16.88;;;21.70;48.10;;;;;;5053403;28;20073;-71
2023/01/01 06:28:40;;;;;;;22.45;16.35;;;21.80;49.90;;;;;;5089202;28;20036;-72
2023/01/01 06:31:08;;;;;;;13.70;7.93;;;21.80;48.40;;;;;;5075688;28;20024;-75
2023/01/01 06:33:35;;;;;;;6.70;4.13;;;21.80;62.80;;;;;;5093757;28;20036;-74
2023/01/01 06:36:04;;;;;;;8.77;4.97;;;22.00;61.90;;;;;;5086588;28;20028;-74
2023/01/01 06:38:34;;;;;;;10.27;6.90;;;22.10;62.70;;;;;;5053589;28;20452;-72
2023/01/01 06:41:06;;;;;;;14.45;6.32;;;22.20;61.70;;;;;;5066869;28;20116;-78
2023/01/01 06:43:34;;;;;;;4.53;3.55;;;22.30;62.60;;;;;;5073457;28;20033;-74
2023/01/01 06:46:17;;;;;;;6.22;4.78;;;22.40;64.30;;;;;;5073369;28;20119;-73
2023/01/01 06:48:44;;;;;;;14.90;6.38;;;22.60;63.70;;;;;;5072764;28;20703;-71
2023/01/01 06:51:15;;;;;;;7.57;4.85;;;22.40;60.90;;;;;;5073284;28;20020;-76
2023/01/01 06:53:42;;;;;;;20.52;15.52;;;22.60;58.80;;;;;;5055218;28;20068;-75
2023/01/01 06:56:08;;;;;;;24.42;16.42;;;22.60;59.80;;;;;;5072838;28;20745;-75
2023/01/01 06:58:34;;;;;;;22.25;16.35;;;22.50;60.10;;;;;;5072995;28;20098;-78
2023/01/01 07:01:10;;;;;;;25.65;17.35;;;22.40;59.00;;;;;;5072762;28;20459;-72
2023/01/01 07:03:37;;;;;;;26.67;19.90;;;22.40;58.20;;;;;;5066337;28;20488;-72
2023/01/01 07:06:05;;;;;;;27.90;20.40;;;22.50;56.50;;;;;;5065242;28;20082;-73
2023/01/01 07:08:31;;;;;;;28.65;21.00;;;22.30;55.70;;;;;;5075636;28;20511;-73
2023/01/01 07:10:57;;;;;;;30.30;21.02;;;22.10;55.40;;;;;;5030671;28;20041;-70
2023/01/01 07:13:24;;;;;;;31.98;20.23;;;21.90;56.20;;;;;;5035061;28;20053;-75
2023/01/01 07:15:50;;;;;;;28.48;21.73;;;21.80;55.90;;;;;;5039931;28;20559;-78
2023/01/01 07:18:20;;;;;;;34.55;22.08;;;21.90;56.50;;;;;;5038828;28;20502;-72
2023/01/01 07:20:55;;;;;;;35.72;22.85;;;21.70;57.20;;;;;;5023603;28;20060;-73
2023/01/01 07:23:21;;;;;;;34.85;21.67;;;21.60;57.50;;;;;;5023288;28;20036;-74
2023/01/01 07:25:48;;;;;;;24.42;16.63;;;21.50;58.10;;;;;;5040029;28;20430;-74
2023/01/01 07:28:14;;;;;;;27.80;17.70;;;21.50;59.70;;;;;;5034304;28;20033;-74
2023/01/01 07:30:40;;;;;;;33.03;18.17;;;21.60;59.50;;;;;;5032407;28;20454;-72
2023/01/01 07:33:13;;;;;;;29.33;17.60;;;21.70;59.10;;;;;;5039472;28;20368;-76
2023/01/01 07:35:40;;;;;;;30.00;20.13;;;21.80;58.10;;;;;;5049893;28;20029;-74
2023/01/01 07:38:06;;;;;;;25.02;18.13;;;21.90;57.30;;;;;;5033581;28;20490;-76
2023/01/01 07:40:33;;;;;;;24.05;16.55;;;22.00;56.60;;;;;;5042894;28;20436;-75
2023/01/01 07:42:59;;;;;;;31.80;21.52;;;22.00;56.30;;;;;;5070395;28;20098;-71
2023/01/01 07:45:25;;;;;;;31.30;22.40;;;22.10;55.80;;;;;;5072299;28;20024;-69
2023/01/01 07:47:56;;;;;;;28.55;21.35;;;22.00;55.80;;;;;;5072193;28;20480;-78
2023/01/01 07:50:25;;;;;;;35.00;22.20;;;21.90;57.20;;;;;;5072176;28;20102;-78
2023/01/01 07:52:51;;;;;;;32.97;21.48;;;21.70;58.40;;;;;;5070139;28;20035;-72
2023/01/01 07:55:18;;;;;;;37.28;21.80;;;21.70;59.60;;;;;;5069510;28;20753;-75
2023/01/01 07:57:45;;;;;;;30.73;20.58;;;21.50;60.40;;;;;;5065623;28;20953;-76
2023/01/01 08:00:16;;;;;;;29.88;21.00;;;21.50;60.80;;;;;;5050856;28;20037;-76
2023/01/01 08:02:43;;;;;;;29.02;19.23;;;21.50;61.50;;;;;;5031859;28;20033;-74
2023/01/01 08:05:09;;;;;;;30.55;21.02;;;21.40;61.70;;;;;;5049309;28;20068;-72
2023/01/01 08:07:36;;;;;;;30.58;20.50;;;21.50;62.40;;;;;;5050137;28;20051;-74
2023/01/01 08:10:03;;;;;;;31.45;20.73;;;21.40;62.50;;;;;;5049933;28;20496;-72
2023/01/01 08:12:29;;;;;;;28.02;19.13;;;21.40;62.30;;;;;;5049954;28;20115;-71
2023/01/01 08:14:55;;;;;;;31.08;20.25;;;21.50;62.20;;;;;;5049387;28;20053;-71
2023/01/01 08:17:21;;;;;;;30.00;21.13;;;21.40;62.50;;;;;;5051037;28;20036;-70
2023/01/01 08:19:48;;;;;;;33.38;21.08;;;21.40;62.40;;;;;;5051164;28;20029;-69
2023/01/01 08:22:14;;;;;;;24.70;19.30;;;21.50;62.20;;;;;;5051381;28;20048;-70
2023/01/01 08:24:40;;;;;;;28.80;19.60;;;21.50;62.80;;;;;;5051324;28;20040;-68
2023/01/01 08:27:09;;;;;;;30.88;22.23;;;21.40;65.50;;;;;;5051074;28;20029;-70
2023/01/01 08:29:35;;;;;;;30.25;19.60;;;21.40;66.20;;;;;;5051100;28;20501;-68
2023/01/01 08:32:01;;;;;;;29.02;20.15;;;21.40;66.30;;;;;;5051058;28;20066;-69
2023/01/01 08:34:27;;;;;;;34.47;20.95;;;21.40;66.80;;;;;;5068055;28;20116;-69
2023/01/01 08:36:52;;;;;;;33.33;21.85;;;21.40;67.00;;;;;;5070989;28;20032;-69
2023/01/01 08:39:18;;;;;;;33.08;22.23;;;21.40;67.90;;;;;;5019323;28;20485;-72
2023/01/01 08:41:44;;;;;;;28.58;20.38;;;21.30;67.80;;;;;;5071310;28;20522;-70
2023/01/01 08:44:10;;;;;;;29.65;21.33;;;21.40;67.30;;;;;;5071138;28;20056;-71
2023/01/01 08:46:36;;;;;;;34.83;22.45;;;21.30;66.40;;;;;;5052989;28;20133;-72
2023/01/01 08:49:02;;;;;;;28.08;20.73;;;21.40;65.80;;;;;;5070991;28;20385;-71
2023/01/01 08:51:28;;;;;;;28.70;20.38;;;21.30;66.00;;;;;;5052674;28;20036;-72
2023/01/01 08:53:54;;;;;;;29.90;18.52;;;21.40;66.10;;;;;;5070480;28;20036;-72
2023/01/01 08:56:20;;;;;;;27.77;18.58;;;21.40;66.10;;;;;;5070753;28;20297;-70
2023/01/01 08:58:47;;;;;;;28.35;19.40;;;21.50;66.50;;;;;;5058787;28;20033;-70
2023/01/01 09:01:13;;;;;;;30.42;18.63;;;21.60;66.70;;;;;;5050360;28;20160;-70
2023/01/01 09:03:39;;;;;;;30.42;19.88;;;21.50;66.50;;;;;;5050401;28;20067;-71
2023/01/01 09:06:06;;;;;;;28.42;18.50;;;21.50;66.40;;;;;;5050104;28;20033;-71
2023/01/01 09:08:32;;;;;;;26.50;19.25;;;21.50;66.10;;;;;;5049705;28;20044;-72
2023/01/01 09:11:00;;;;;;;26.63;18.70;;;21.60;65.60;;;;;;5032347;28;20121;-71
2023/01/01 09:13:27;;;;;;;26.58;19.40;;;21.60;65.10;;;;;;5059537;28;20720;-70
2023/01/01 09:15:53;;;;;;;29.00;19.27;;;21.60;65.10;;;;;;5070163;28;20024;-71
2023/01/01 09:18:19;;;;;;;30.45;19.55;;;21.60;65.10;;;;;;5070702;28;20449;-70
2023/01/01 09:20:45;;;;;;;27.38;18.83;;;21.60;65.10;;;;;;5070811;28;20040;-70
2023/01/01 09:23:12;;;;;;;28.15;18.73;;;21.60;65.00;;;;;;5070646;28;20530;-70
2023/01/01 09:25:38;;;;;;;29.73;19.27;;;21.60;65.10;;;;;;5070739;28;20117;-70
2023/01/01 09:28:07;;;;;;;30.70;20.38;;;21.50;65.20;;;;;;5070554;28;20041;-71
2023/01/01 09:30:34;;;;;;;30.52;20.25;;;21.50;65.30;;;;;;5070360;28;20086;-71
2023/01/01 09:33:01;;;;;;;32.80;22.38;;;21.60;65.40;;;;;;5070498;28;20029;-72
2023/01/01 09:35:28;;;;;;;30.35;20.80;;;21.50;65.60;;;;;;5070500;28;20043;-70
2023/01/01 09:37:55;;;;;;;41.45;22.80;;;21.60;65.70;;;;;;5052528;28;20028;-70
2023/01/01 09:40:25;;;;;;;30.08;20.65;;;21.50;65.50;;;;;;5018401;28;20051;-70
2023/01/01 09:43:19;;;;;;;36.08;23.65;;;21.60;65.30;;;;;;5070258;28;20036;-71
2023/01/01 09:46:01;;;;;;;34.05;21.70;;;21.60;65.20;;;;;;4968748;28;20473;-71
2023/01/01 09:48:30;;;;;;;29.02;18.48;;;21.60;65.40;;;;;;4968897;28;20098;-70
2023/01/01 09:50:59;;;;;;;25.02;17.33;;;21.60;65.30;;;;;;4968082;28;20206;-70
2023/01/01 09:53:41;;;;;;;27.25;18.73;;;21.70;65.30;;;;;;4929468;29;20052;-69
2023/01/01 09:56:16;;;;;;;32.05;21.83;;;21.60;65.20;;;;;;4929569;29;20194;-72
2023/01/01 09:58:42;;;;;;;24.42;16.95;;;21.60;58.20;;;;;;4929890;29;20083;-72
2023/01/01 10:01:38;;;;;;;31.27;19.30;;;21.70;56.30;;;;;;4930534;29;20044;-72
2023/01/01 10:04:51;;;;;;;30.38;19.98;;;21.90;62.40;;;;;;4933103;29;20198;-71
2023/01/01 10:07:36;;;;;;;28.50;17.83;;;22.00;62.70;;;;;;4862512;29;20573;-72
2023/01/01 10:10:29;;;;;;;29.73;18.40;;;22.00;62.80;;;;;;4903258;29;20136;-70
2023/01/01 10:13:00;;;;;;;21.45;15.23;;;22.00;63.60;;;;;;4915480;29;20470;-70
2023/01/01 10:15:31;;;;;;;26.98;16.73;;;21.90;54.70;;;;;;4898953;29;20036;-74
2023/01/01 10:18:02;;;;;;;20.88;14.00;;;22.00;55.20;;;;;;4912966;29;20116;-74
2023/01/01 10:20:40;;;;;;;25.08;15.85;;;22.10;53.40;;;;;;4899605;29;20047;-73
2023/01/01 10:23:23;;;;;;;23.90;14.48;;;22.30;57.40;;;;;;4926039;29;20107;-73
2023/01/01 10:25:49;;;;;;;9.13;6.32;;;22.40;49.50;;;;;;4988059;28;20042;-71
2023/01/01 10:28:24;;;;;;;8.48;5.65;;;22.50;62.10;;;;;;4991221;28;20471;-73
2023/01/01 10:30:54;;;;;;;3.42;2.10;;;22.60;62.60;;;;;;4991768;28;20093;-72
2023/01/01 10:33:20;;;;;;;2.17;1.98;;;22.60;62.50;;;;;;4991913;28;20113;-72
2023/01/01 10:35:54;;;;;;;4.90;2.53;;;22.70;63.60;;;;;;4991881;28;20716;-70
2023/01/01 10:38:23;;;;;;;2.17;2.03;;;23.40;68.70;;;;;;5041217;28;20036;-73
2023/01/01 10:40:59;;;;;;;4.03;3.58;;;24.20;68.30;;;;;;5071635;28;20454;-72
2023/01/01 10:43:25;;;;;;;26.50;19.23;;;24.90;65.60;;;;;;5089441;28;20096;-73
2023/01/01 10:45:53;;;;;;;29.55;21.73;;;25.30;62.40;;;;;;5104610;28;20034;-73
2023/01/01 10:48:24;;;;;;;25.88;18.95;;;25.50;49.70;;;;;;5092511;28;20028;-71
2023/01/01 10:50:51;;;;;;;27.48;20.50;;;25.10;46.80;;;;;;5087565;28;20476;-73
2023/01/01 10:53:27;;;;;;;28.38;22.20;;;24.80;47.50;;;;;;5073525;28;20119;-75
2023/01/01 10:56:04;;;;;;;28.98;21.10;;;24.70;53.70;;;;;;5072580;28;20106;-76
2023/01/01 10:58:35;;;;;;;32.22;21.20;;;24.50;54.20;;;;;;5072733;28;20137;-72
2023/01/01 11:01:03;;;;;;;30.90;21.60;;;24.40;55.50;;;;;;5092193;28;20032;-71
2023/01/01 11:03:29;;;;;;;35.08;23.10;;;24.20;55.60;;;;;;5091966;28;20032;-73
2023/01/01 11:06:09;;;;;;;29.80;20.83;;;24.10;56.80;;;;;;5093238;28;20047;-73
2023/01/01 11:08:38;;;;;;;31.98;19.98;;;24.00;57.20;;;;;;5081156;28;20409;-72
2023/01/01 11:11:04;;;;;;;34.35;20.77;;;23.90;54.60;;;;;;5033375;28;20149;-71
2023/01/01 11:13:32;;;;;;;30.17;20.98;;;23.70;56.40;;;;;;5031016;28;20041;-74
2023/01/01 11:15:59;;;;;;;29.48;19.58;;;23.60;57.50;;;;;;5034634;28;20043;-74
2023/01/01 11:18:34;;;;;;;27.45;19.45;;;23.40;57.70;;;;;;5030204;28;20487;-75
2023/01/01 11:21:03;;;;;;;29.17;18.27;;;23.50;58.20;;;;;;5030233;28;20050;-73
2023/01/01 11:23:37;;;;;;;31.42;19.90;;;23.60;58.70;;;;;;5014774;28;20063;-72
2023/01/01 11:26:18;;;;;;;28.23;19.52;;;23.40;58.10;;;;;;5029370;28;20053;-72
2023/01/01 11:29:16;;;;;;;30.17;19.98;;;23.40;58.40;;;;;;5038547;28;20175;-72
2023/01/01 11:31:46;;;;;;;34.13;20.30;;;23.30;58.90;;;;;;4990819;28;20132;-73
2023/01/01 11:34:40;;;;;;;28.77;18.55;;;23.20;59.00;;;;;;5007433;28;20065;-74
2023/01/01 11:37:24;;;;;;;27.95;17.48;;;23.30;59.40;;;;;;5007102;28;20104;-75
2023/01/01 11:39:53;;;;;;;27.25;19.20;;;23.10;59.50;;;;;;5008531;28;20510;-72
2023/01/01 11:42:24;;;;;;;27.58;19.25;;;23.20;59.30;;;;;;4993496;28;20052;-78
2023/01/01 11:44:58;;;;;;;28.13;19.15;;;23.20;59.40;;;;;;5010142;28;20076;-77
2023/01/01 11:47:24;;;;;;;32.42;19.15;;;23.10;59.60;;;;;;4994962;28;20486;-71
2023/01/01 11:50:00;;;;;;;27.38;19.15;;;23.10;59.60;;;;;;4990303;28;20049;-76
2023/01/01 11:52:36;;;;;;;27.58;18.88;;;23.10;59.90;;;;;;4973851;28;20073;-77
2023/01/01 11:55:26;;;;;;;29.05;18.88;;;23.10;59.60;;;;;;4990246;28;20050;-77
2023/01/01 11:58:15;;;;;;;29.52;18.52;;;23.00;59.70;;;;;;4973668;28;20038;-75
2023/01/01 12:00:41;;;;;;;26.80;16.95;;;23.10;59.90;;;;;;4990005;28;20137;-74
2023/01/01 12:03:15;;;;;;;26.70;18.45;;;23.10;59.80;;;;;;4990171;28;20057;-74
2023/01/01 12:05:55;;;;;;;32.40;17.65;;;22.90;59.40;;;;;;4989910;28;20042;-77
2023/01/01 12:08:45;;;;;;;27.17;17.30;;;22.90;59.60;;;;;;5010050;28;20045;-74
2023/01/01 12:11:26;;;;;;;29.40;17.45;;;22.90;63.80;;;;;;5051810;28;20045;-72
2023/01/01 12:14:21;;;;;;;27.15;17.95;;;22.90;65.10;;;;;;5051645;28;20094;-75
2023/01/01 12:16:52;;;;;;;33.35;18.40;;;23.10;64.30;;;;;;5051438;28;20620;-73
2023/01/01 12:19:23;;;;;;;29.75;17.70;;;23.00;63.70;;;;;;5056586;28;20020;-73
2023/01/01 12:21:54;;;;;;;29.20;20.10;;;22.90;62.60;;;;;;5071138;28;20090;-77
2023/01/01 12:24:20;;;;;;;31.45;19.20;;;23.00;61.70;;;;;;5071356;28;20028;-73
2023/01/01 12:27:12;;;;;;;28.98;18.92;;;23.00;61.30;;;;;;5070147;28;20035;-72
2023/01/01 12:30:04;;;;;;;28.58;18.63;;;23.00;61.30;;;;;;5071234;28;20050;-74
2023/01/01 12:33:04;;;;;;;25.75;16.95;;;23.00;62.00;;;;;;5071236;28;20046;-73
2023/01/01 12:35:49;;;;;;;27.02;17.85;;;23.00;62.30;;;;;;5071147;28;20044;-75
2023/01/01 12:38:39;;;;;;;23.27;17.30;;;23.00;61.80;;;;;;5071156;28;20025;-75
2023/01/01 12:41:12;;;;;;;25.65;16.77;;;23.00;60.10;;;;;;5071262;28;20028;-74
2023/01/01 12:43:50;;;;;;;26.98;17.40;;;22.90;58.60;;;;;;5071348;28;20128;-74
2023/01/01 12:46:34;;;;;;;26.33;18.15;;;23.00;59.60;;;;;;5070967;28;20024;-75
2023/01/01 12:49:35;;;;;;;23.55;16.50;;;22.90;58.90;;;;;;5053268;28;20064;-74
2023/01/01 12:52:33;;;;;;;29.52;17.45;;;23.00;59.30;;;;;;5053233;28;20043;-73